createdAt,value
2018-11-14T00:00:48.707Z,9.90
2018-11-14T00:03:15.897Z,9.97
2018-11-14T00:05:43.080Z,9.90
2018-11-14T00:08:10.256Z,9.90
2018-11-14T00:10:37.381Z,9.60
2018-11-14T00:13:04.648Z,9.63
2018-11-14T00:15:31.786Z,9.93
2018-11-14T00:17:58.917Z,10.43
2018-11-14T00:20:26.128Z,10.83
2018-11-14T00:22:53.265Z,10.87
2018-11-14T00:25:20.418Z,11.57
2018-11-14T00:27:47.695Z,11.50
2018-11-14T00:30:19.640Z,11.70
2018-11-14T00:32:47.498Z,11.57
2018-11-14T00:35:14.795Z,10.57
2018-11-14T00:37:42.458Z,11.57
2018-11-14T00:40:11.081Z,12.33
2018-11-14T00:42:38.272Z,11.13
2018-11-14T00:45:06.957Z,11.03
2018-11-14T00:47:34.161Z,10.93
2018-11-14T00:50:01.317Z,10.37
2018-11-14T00:52:28.465Z,10.23
2018-11-14T00:54:55.670Z,10.93
2018-11-14T00:57:22.806Z,11.27
2018-11-14T00:59:49.945Z,11.83
2018-11-14T01:02:17.360Z,11.43
2018-11-14T01:04:44.573Z,11.33
2018-11-14T01:07:11.792Z,10.77
2018-11-14T01:09:38.971Z,11.50
2018-11-14T01:12:06.103Z,11.70
2018-11-14T01:14:33.234Z,12.17
2018-11-14T01:17:00.472Z,11.60
2018-11-14T01:19:27.617Z,11.23
2018-11-14T01:21:54.752Z,12.20
2018-11-14T01:24:21.957Z,12.23
2018-11-14T01:26:49.106Z,11.90
2018-11-14T01:29:16.269Z,11.27
2018-11-14T01:31:43.468Z,11.10
2018-11-14T01:34:11.020Z,12.77
2018-11-14T01:36:37.936Z,12.07
2018-11-14T01:39:08.163Z,11.43
2018-11-14T01:41:35.331Z,11.07
2018-11-14T01:44:02.497Z,11.73
2018-11-14T01:46:29.692Z,11.40
2018-11-14T01:48:56.824Z,11.53
2018-11-14T01:51:23.968Z,11.17
2018-11-14T01:53:51.159Z,12.00
2018-11-14T01:56:18.295Z,11.80
2018-11-14T01:58:45.430Z,12.80
2018-11-14T02:01:12.620Z,13.13
2018-11-14T02:03:39.765Z,12.70
2018-11-14T02:06:06.908Z,12.53
2018-11-14T02:08:34.110Z,12.67
2018-11-14T02:11:01.237Z,13.03
2018-11-14T02:13:28.378Z,12.60
2018-11-14T02:15:55.548Z,12.90
2018-11-14T02:18:22.745Z,12.97
2018-11-14T02:20:49.934Z,12.20
2018-11-14T02:23:17.141Z,13.13
2018-11-14T02:25:44.378Z,13.03
2018-11-14T02:28:11.517Z,12.17
2018-11-14T02:30:38.693Z,13.07
2018-11-14T02:33:06.853Z,11.77
2018-11-14T02:35:34.002Z,12.43
2018-11-14T02:38:01.226Z,12.57
2018-11-14T02:40:28.384Z,12.57
2018-11-14T02:42:55.532Z,12.13
2018-11-14T02:45:22.721Z,12.37
2018-11-14T02:47:49.876Z,11.83
2018-11-14T02:50:17.538Z,12.23
2018-11-14T02:52:44.722Z,11.33
2018-11-14T02:55:12.750Z,12.10
2018-11-14T02:57:40.001Z,11.00
2018-11-14T03:00:10.737Z,11.07
2018-11-14T03:02:39.991Z,11.77
2018-11-14T03:05:07.202Z,11.23
2018-11-14T03:07:34.513Z,11.50
2018-11-14T03:10:01.688Z,11.67
2018-11-14T03:12:28.962Z,11.40
2018-11-14T03:14:56.060Z,12.67
2018-11-14T03:17:23.195Z,12.53
2018-11-14T03:19:50.377Z,12.70
2018-11-14T03:22:17.556Z,12.20
2018-11-14T03:24:44.709Z,12.60
2018-11-14T03:27:11.855Z,11.60
2018-11-14T03:29:39.060Z,12.63
2018-11-14T03:32:06.201Z,13.73
2018-11-14T03:34:33.353Z,13.40
2018-11-14T03:37:00.553Z,14.70
2018-11-14T03:39:27.721Z,14.47
2018-11-14T03:41:54.877Z,13.73
2018-11-14T03:44:22.087Z,13.47
2018-11-14T03:46:49.233Z,13.10
2018-11-14T03:49:16.364Z,13.43
2018-11-14T03:51:43.542Z,12.87
2018-11-14T03:54:10.763Z,13.17
2018-11-14T03:56:37.893Z,13.30
2018-11-14T03:59:05.107Z,13.40
2018-11-14T04:01:32.262Z,12.10
2018-11-14T04:03:59.435Z,11.23
2018-11-14T04:06:26.617Z,10.37
2018-11-14T04:08:53.759Z,10.33
2018-11-14T04:11:20.900Z,9.63
2018-11-14T04:13:48.094Z,10.90
2018-11-14T04:16:15.249Z,10.07
2018-11-14T04:18:42.396Z,11.03
2018-11-14T04:21:09.757Z,10.70
2018-11-14T04:23:41.025Z,11.40
2018-11-14T04:26:08.154Z,11.97
2018-11-14T04:28:35.377Z,11.03
2018-11-14T04:31:02.526Z,12.77
2018-11-14T04:33:29.662Z,13.23
2018-11-14T04:35:56.867Z,13.17
2018-11-14T04:38:24.014Z,14.40
2018-11-14T04:40:51.152Z,13.50
2018-11-14T04:43:18.370Z,12.50
2018-11-14T04:45:45.528Z,13.23
2018-11-14T04:48:12.833Z,12.83
2018-11-14T04:50:39.930Z,11.63
2018-11-14T04:53:07.094Z,13.17
2018-11-14T04:55:34.247Z,10.37
2018-11-14T04:58:01.510Z,12.57
2018-11-14T05:00:28.660Z,13.17
2018-11-14T05:02:55.783Z,12.73
2018-11-14T05:05:23.894Z,12.67
2018-11-14T05:07:51.025Z,12.33
2018-11-14T05:10:20.048Z,13.67
2018-11-14T05:12:47.590Z,13.40
2018-11-14T05:15:16.111Z,13.20
2018-11-14T05:17:43.889Z,13.77
2018-11-14T05:20:12.624Z,13.73
2018-11-14T05:22:39.864Z,14.17
2018-11-14T05:25:07.176Z,14.07
2018-11-14T05:27:34.395Z,14.10
2018-11-14T05:30:01.575Z,14.20
2018-11-14T05:32:28.853Z,12.77
2018-11-14T05:34:56.120Z,12.80
2018-11-14T05:37:23.289Z,12.40
2018-11-14T05:39:50.546Z,13.10
2018-11-14T05:42:17.673Z,12.80
2018-11-14T05:44:44.913Z,13.53
2018-11-14T05:47:12.058Z,13.40
2018-11-14T05:49:39.263Z,14.00
2018-11-14T05:52:06.508Z,14.97
2018-11-14T05:54:33.661Z,13.03
2018-11-14T05:57:00.938Z,15.33
2018-11-14T05:59:28.060Z,15.30
2018-11-14T06:01:55.218Z,14.77
2018-11-14T06:04:22.421Z,13.73
2018-11-14T06:06:49.628Z,15.07
2018-11-14T06:09:16.809Z,13.20
2018-11-14T06:11:44.005Z,14.73
2018-11-14T06:14:11.298Z,15.60
2018-11-14T06:16:38.475Z,13.80
2018-11-14T06:19:05.734Z,13.77
2018-11-14T06:21:33.258Z,13.33
2018-11-14T06:24:00.475Z,12.90
2018-11-14T06:26:27.745Z,15.30
2018-11-14T06:28:54.903Z,13.13
2018-11-14T06:31:22.078Z,12.47
2018-11-14T06:33:49.413Z,12.00
2018-11-14T06:36:16.926Z,14.70
2018-11-14T06:38:44.066Z,14.37
2018-11-14T06:41:11.337Z,14.97
2018-11-14T06:43:38.464Z,14.80
2018-11-14T06:46:05.684Z,15.47
2018-11-14T06:48:32.885Z,17.60
2018-11-14T06:51:00.148Z,17.07
2018-11-14T06:53:27.297Z,15.90
2018-11-14T06:55:54.528Z,16.63
2018-11-14T06:58:21.682Z,17.17
2018-11-14T07:00:48.834Z,15.60
2018-11-14T07:03:16.048Z,15.00
2018-11-14T07:05:43.314Z,16.90
2018-11-14T07:08:10.385Z,16.10
2018-11-14T07:10:37.596Z,17.33
2018-11-14T07:13:07.078Z,17.20
2018-11-14T07:15:34.837Z,17.50
2018-11-14T07:18:02.174Z,15.70
2018-11-14T07:20:30.569Z,16.50
2018-11-14T07:22:57.775Z,18.43
2018-11-14T07:25:25.138Z,18.67
2018-11-14T07:27:52.325Z,19.90
2018-11-14T07:30:20.799Z,19.10
2018-11-14T07:32:49.445Z,18.80
2018-11-14T07:35:19.002Z,19.57
2018-11-14T07:38:50.188Z,20.47
2018-11-14T07:41:19.516Z,19.13
2018-11-14T07:43:46.861Z,19.17
2018-11-14T07:46:15.204Z,18.20
2018-11-14T07:48:43.300Z,18.40
2018-11-14T07:51:10.582Z,18.40
2018-11-14T07:53:38.966Z,16.73
2018-11-14T07:56:06.397Z,16.10
2018-11-14T07:58:34.807Z,16.63
2018-11-14T08:01:02.201Z,15.10
2018-11-14T08:03:29.817Z,15.73
2018-11-14T08:05:57.243Z,15.67
2018-11-14T08:08:24.691Z,14.43
2018-11-14T08:10:51.837Z,14.93
2018-11-14T08:13:22.121Z,14.70
2018-11-14T08:15:50.670Z,15.83
2018-11-14T08:18:17.869Z,14.13
2018-11-14T08:20:46.189Z,16.73
2018-11-14T08:23:13.492Z,14.87
2018-11-14T08:25:40.835Z,14.67
2018-11-14T08:28:08.035Z,14.67
2018-11-14T08:30:35.442Z,14.70
2018-11-14T08:33:02.567Z,14.63
2018-11-14T08:35:29.813Z,14.33
2018-11-14T08:37:57.096Z,14.70
2018-11-14T08:40:24.277Z,14.83
2018-11-14T08:42:51.438Z,15.97
2018-11-14T08:45:18.704Z,15.40
2018-11-14T08:47:48.022Z,15.13
2018-11-14T08:50:15.914Z,15.13
2018-11-14T08:52:44.776Z,14.33
2018-11-14T08:55:12.864Z,14.43
2018-11-14T08:57:41.052Z,13.67
2018-11-14T09:00:15.078Z,13.77
2018-11-14T09:02:43.054Z,13.67
2018-11-14T09:05:10.573Z,14.07
2018-11-14T09:07:38.092Z,14.07
2018-11-14T09:10:11.717Z,13.73
2018-11-14T09:12:39.759Z,12.23
2018-11-14T09:15:07.836Z,14.00
2018-11-14T09:17:35.095Z,12.63
2018-11-14T09:20:02.361Z,12.80
2018-11-14T09:22:29.513Z,13.23
2018-11-14T09:24:56.704Z,13.63
2018-11-14T09:27:24.094Z,13.30
2018-11-14T09:29:51.209Z,13.17
2018-11-14T09:32:22.125Z,12.97
2018-11-14T09:34:52.484Z,13.33
2018-11-14T09:37:19.666Z,12.90
2018-11-14T09:39:47.380Z,11.63
2018-11-14T09:42:14.586Z,13.07
2018-11-14T09:44:42.783Z,12.70
2018-11-14T09:47:10.037Z,11.80
2018-11-14T09:49:37.333Z,11.60
2018-11-14T09:52:04.621Z,11.07
2018-11-14T09:54:31.765Z,13.33
2018-11-14T09:56:59.084Z,13.17
2018-11-14T09:59:26.316Z,12.77
2018-11-14T10:01:53.504Z,10.93
2018-11-14T10:04:20.672Z,11.27
2018-11-14T10:06:47.812Z,11.90
2018-11-14T10:09:14.964Z,12.73
2018-11-14T10:11:42.336Z,12.23
2018-11-14T10:14:10.409Z,11.10
2018-11-14T10:16:37.753Z,11.33
2018-11-14T10:19:06.066Z,12.13
2018-11-14T10:21:33.237Z,12.00
2018-11-14T10:24:00.380Z,12.07
2018-11-14T10:26:27.575Z,11.67
2018-11-14T10:28:54.792Z,12.23
2018-11-14T10:31:22.032Z,11.70
2018-11-14T10:33:49.293Z,11.63
2018-11-14T10:36:16.484Z,12.57
2018-11-14T10:38:43.653Z,12.67
2018-11-14T10:41:11.034Z,12.70
2018-11-14T10:43:39.324Z,11.93
2018-11-14T10:46:06.573Z,11.87
2018-11-14T10:48:33.749Z,12.37
2018-11-14T10:51:00.934Z,12.47
2018-11-14T10:53:28.131Z,12.37
2018-11-14T10:55:55.363Z,12.23
2018-11-14T10:58:22.565Z,11.60
2018-11-14T11:00:55.477Z,11.87
2018-11-14T11:03:28.452Z,11.77
2018-11-14T11:06:01.450Z,11.77
2018-11-14T11:08:34.472Z,11.03
2018-11-14T11:11:07.255Z,10.83
2018-11-14T11:14:12.506Z,11.00
2018-11-14T11:16:45.919Z,11.37
2018-11-14T11:19:13.808Z,10.90
2018-11-14T11:21:40.933Z,11.30
2018-11-14T11:24:08.089Z,10.10
2018-11-14T11:26:36.134Z,9.70
2018-11-14T11:29:03.285Z,9.53
2018-11-14T11:31:30.417Z,9.90
2018-11-14T11:33:57.739Z,10.07
2018-11-14T11:36:24.939Z,10.90
2018-11-14T11:38:52.073Z,9.97
2018-11-14T11:41:19.328Z,9.33
2018-11-14T11:43:46.469Z,9.70
2018-11-14T11:46:13.643Z,9.30
2018-11-14T11:48:40.827Z,9.97
2018-11-14T11:51:07.971Z,9.23
2018-11-14T11:53:35.192Z,9.90
2018-11-14T11:56:02.370Z,9.27
2018-11-14T11:58:29.508Z,8.90
2018-11-14T12:00:56.657Z,8.07
2018-11-14T12:03:23.988Z,8.60
2018-11-14T12:05:51.259Z,8.27
2018-11-14T12:08:18.492Z,8.03
2018-11-14T12:10:45.834Z,8.30
2018-11-14T12:13:13.138Z,8.40
2018-11-14T12:15:40.313Z,7.53
2018-11-14T12:18:07.612Z,8.43
2018-11-14T12:20:34.775Z,8.13
2018-11-14T12:23:01.947Z,8.80
2018-11-14T12:25:29.218Z,8.60
2018-11-14T12:27:56.438Z,7.23
2018-11-14T12:30:23.711Z,8.10
2018-11-14T12:32:51.931Z,7.60
2018-11-14T12:35:19.152Z,7.70
2018-11-14T12:37:46.301Z,7.40
2018-11-14T12:40:14.220Z,7.40
2018-11-14T12:42:41.499Z,7.03
2018-11-14T12:45:10.568Z,8.20
2018-11-14T13:02:53.180Z,7.90
2018-11-14T13:05:20.334Z,7.30
2018-11-14T13:07:48.571Z,7.57
2018-11-14T13:10:17.210Z,6.97
2018-11-14T13:12:45.343Z,6.87
2018-11-14T13:15:13.602Z,7.03
2018-11-14T13:17:41.409Z,6.20
2018-11-14T13:20:10.486Z,6.40
2018-11-14T13:22:37.662Z,6.30
2018-11-14T13:25:06.588Z,6.33
2018-11-14T13:27:33.745Z,7.83
2018-11-14T13:30:01.049Z,6.57
2018-11-14T13:32:28.369Z,6.93
2018-11-14T13:34:55.622Z,5.83
2018-11-14T13:37:22.746Z,6.17
2018-11-14T13:39:50.066Z,5.97
2018-11-14T13:42:17.204Z,6.43
2018-11-14T13:44:44.497Z,5.93
2018-11-14T13:47:11.773Z,5.33
2018-11-14T13:49:39.737Z,5.70
2018-11-14T13:52:07.004Z,6.50
2018-11-14T13:54:34.243Z,5.40
2018-11-14T13:57:01.378Z,5.93
2018-11-14T13:59:28.555Z,5.70
2018-11-14T14:01:55.906Z,5.73
2018-11-14T14:04:23.032Z,5.90
2018-11-14T14:06:50.200Z,5.63
2018-11-14T14:09:17.410Z,6.30
2018-11-14T14:11:44.537Z,6.50
2018-11-14T14:14:15.859Z,5.73
2018-11-14T14:16:43.668Z,5.73
2018-11-14T14:19:10.901Z,5.23
2018-11-14T14:21:38.247Z,6.13
2018-11-14T14:24:05.934Z,6.10
2018-11-14T14:26:33.347Z,6.20
2018-11-14T14:29:00.539Z,6.00
2018-11-14T14:31:28.081Z,7.30
2018-11-14T14:33:55.321Z,7.07
2018-11-14T14:36:22.460Z,6.90
2018-11-14T14:38:49.744Z,5.50
2018-11-14T14:41:16.898Z,6.37
2018-11-14T14:43:44.047Z,6.70
2018-11-14T14:46:11.422Z,5.90
2018-11-14T14:48:38.596Z,7.03
2018-11-14T14:51:05.740Z,5.90
2018-11-14T14:53:32.945Z,7.10
2018-11-14T14:56:00.140Z,6.40
2018-11-14T14:58:27.281Z,6.43
2018-11-14T15:00:54.528Z,5.80
2018-11-14T15:03:21.859Z,6.20
2018-11-14T15:05:48.962Z,6.57
2018-11-14T15:08:16.164Z,7.97
2018-11-14T15:10:43.329Z,8.23
2018-11-14T15:13:10.479Z,8.53
2018-11-14T15:15:37.884Z,9.40
2018-11-14T15:18:05.106Z,9.67
2018-11-14T15:20:32.257Z,9.70
2018-11-14T15:23:02.736Z,9.93
2018-11-14T15:25:29.901Z,8.90
2018-11-14T15:27:57.082Z,8.93
2018-11-14T15:30:25.713Z,10.03
2018-11-14T15:32:52.867Z,11.27
2018-11-14T15:35:20.189Z,10.47
2018-11-14T15:37:47.406Z,10.93
2018-11-14T15:40:15.884Z,12.37
2018-11-14T15:42:43.188Z,13.70
2018-11-14T15:45:15.503Z,13.20
2018-11-14T15:47:46.205Z,11.73
2018-11-14T15:50:15.455Z,12.33
2018-11-14T15:52:44.265Z,11.60
2018-11-14T15:55:12.441Z,11.73
2018-11-14T15:57:39.758Z,12.97
2018-11-14T16:00:10.297Z,11.17
2018-11-14T16:02:37.517Z,12.23
2018-11-14T16:05:06.330Z,11.03
2018-11-14T16:07:34.554Z,11.30
2018-11-14T16:10:01.753Z,12.77
2018-11-14T16:12:29.110Z,13.10
2018-11-14T16:14:57.361Z,14.03
2018-11-14T16:17:24.514Z,15.03
2018-11-14T16:19:51.780Z,14.97
2018-11-14T16:22:18.912Z,15.23
2018-11-14T16:24:46.150Z,14.57
2018-11-14T16:27:14.748Z,14.87
2018-11-14T16:29:42.018Z,14.27
2018-11-14T16:32:09.209Z,13.93
2018-11-14T16:34:36.397Z,13.13
2018-11-14T16:37:03.706Z,16.33
2018-11-14T16:39:30.848Z,14.20
2018-11-14T16:41:58.294Z,16.50
2018-11-14T16:44:25.485Z,16.00
2018-11-14T16:46:52.673Z,16.70
2018-11-14T16:49:19.958Z,16.40
2018-11-14T16:51:48.228Z,16.33
2018-11-14T16:54:16.502Z,14.77
2018-11-14T16:56:43.738Z,14.53
2018-11-14T16:59:11.984Z,15.00
2018-11-14T17:01:39.176Z,14.97
2018-11-14T17:04:06.531Z,20.10
2018-11-14T17:06:33.720Z,20.50
2018-11-14T17:09:00.904Z,18.43
2018-11-14T17:11:28.241Z,30.23
2018-11-14T17:13:55.409Z,34.60
2018-11-14T17:16:22.621Z,35.67
2018-11-14T17:18:49.877Z,32.27
2018-11-14T17:21:17.053Z,30.70
2018-11-14T17:23:44.250Z,26.67
2018-11-14T17:26:11.605Z,25.83
2018-11-14T17:28:38.885Z,27.10
2018-11-14T17:31:06.176Z,24.77
2018-11-14T17:33:33.435Z,23.87
2018-11-14T17:36:00.753Z,22.07
2018-11-14T17:38:27.917Z,21.00
2018-11-14T17:43:28.078Z,20.43
2018-11-14T17:45:55.309Z,20.80
2018-11-14T17:48:22.482Z,20.70
2018-11-14T17:50:49.729Z,19.03
2018-11-14T17:53:16.915Z,19.47
2018-11-14T17:55:44.122Z,19.53
2018-11-14T17:58:11.276Z,17.87
2018-11-14T18:00:38.491Z,17.90
2018-11-14T18:03:05.687Z,18.43
2018-11-14T18:05:32.836Z,15.80
2018-11-14T18:08:00.520Z,16.23
2018-11-14T18:10:28.870Z,17.90
2018-11-14T18:12:57.237Z,16.27
2018-11-14T18:15:24.453Z,17.77
2018-11-14T18:17:52.452Z,19.43
2018-11-14T18:20:21.050Z,23.17
2018-11-14T18:22:48.959Z,20.77
2018-11-14T18:25:16.337Z,21.77
2018-11-14T18:27:43.515Z,21.37
2018-11-14T18:30:17.495Z,21.07
2018-11-14T18:32:44.762Z,24.53
2018-11-14T18:35:14.080Z,21.80
2018-11-14T18:37:42.013Z,18.83
2018-11-14T18:40:11.434Z,19.50
2018-11-14T18:42:39.100Z,22.03
2018-11-14T18:45:14.140Z,22.40
2018-11-14T18:47:41.417Z,21.07
2018-11-14T18:50:09.893Z,20.13
2018-11-14T18:52:37.813Z,17.00
2018-11-14T18:55:06.493Z,18.70
2018-11-14T18:57:33.777Z,17.43
2018-11-14T19:00:02.927Z,15.67
2018-11-14T19:02:30.122Z,18.87
2018-11-14T19:04:57.241Z,18.63
2018-11-14T19:07:24.454Z,18.63
2018-11-14T19:09:51.664Z,17.57
2018-11-14T19:12:18.821Z,16.73
2018-11-14T19:14:46.076Z,16.83
2018-11-14T19:17:13.510Z,18.23
2018-11-14T19:19:40.672Z,17.93
2018-11-14T19:22:07.932Z,15.70
2018-11-14T19:24:35.138Z,17.73
2018-11-14T19:27:02.239Z,17.93
2018-11-14T19:29:29.420Z,17.17
2018-11-14T19:31:56.552Z,19.77
2018-11-14T19:34:23.860Z,18.77
2018-11-14T19:36:51.058Z,16.93
2018-11-14T19:39:18.289Z,19.47
2018-11-14T19:41:45.444Z,17.93
2018-11-14T19:44:12.633Z,16.27
2018-11-14T19:46:39.855Z,16.17
2018-11-14T19:49:07.232Z,16.37
2018-11-14T19:51:34.466Z,15.63
2018-11-14T19:54:01.629Z,15.37
2018-11-14T19:56:29.153Z,14.37
2018-11-14T19:58:56.516Z,16.50
2018-11-14T20:01:23.725Z,19.30
2018-11-14T20:03:50.905Z,21.57
2018-11-14T20:06:19.480Z,21.43
2018-11-14T20:08:46.835Z,21.03
2018-11-14T20:11:14.066Z,22.90
2018-11-14T20:13:41.449Z,22.83
2018-11-14T20:16:08.623Z,22.53
2018-11-14T20:18:35.877Z,24.33
2018-11-14T20:21:03.196Z,23.80
2018-11-14T20:23:30.364Z,24.03
2018-11-14T20:25:57.613Z,22.80
2018-11-14T20:28:24.774Z,20.63
2018-11-14T20:30:52.021Z,21.57
2018-11-14T20:33:19.196Z,20.83
2018-11-14T20:35:46.560Z,19.90
2018-11-14T20:38:13.816Z,20.90
2018-11-14T20:40:42.136Z,19.23
2018-11-14T20:43:09.489Z,19.40
2018-11-14T20:45:36.621Z,19.30
2018-11-14T20:48:03.824Z,17.43
2018-11-14T20:50:31.029Z,19.47
2018-11-14T20:53:00.969Z,23.37
2018-11-14T20:55:28.614Z,22.23
2018-11-14T20:57:55.856Z,21.10
2018-11-14T21:00:24.466Z,21.23
2018-11-14T21:02:51.987Z,19.80
2018-11-14T21:05:19.302Z,19.80
2018-11-14T21:07:46.485Z,20.80
2018-11-14T21:10:14.913Z,22.83
2018-11-14T21:12:42.399Z,20.53
2018-11-14T21:15:11.516Z,21.43
2018-11-14T21:17:38.637Z,19.90
2018-11-14T21:20:06.814Z,18.73
2018-11-14T21:22:33.953Z,17.93
2018-11-14T21:25:01.198Z,16.90
2018-11-14T21:27:28.393Z,18.13
2018-11-14T21:29:55.533Z,18.23
2018-11-14T21:32:22.681Z,18.03
2018-11-14T21:34:49.880Z,17.87
2018-11-14T21:37:17.100Z,18.90
2018-11-14T21:39:44.237Z,21.40
2018-11-14T21:42:11.460Z,22.13
2018-11-14T21:44:39.294Z,20.27
2018-11-14T21:47:06.460Z,21.90
2018-11-14T21:49:33.695Z,21.93
2018-11-14T21:52:00.835Z,22.03
2018-11-14T21:54:27.970Z,20.70
2018-11-14T21:56:55.793Z,22.13
2018-11-14T21:59:22.973Z,22.20
2018-11-14T22:01:50.142Z,22.80
2018-11-14T22:04:17.328Z,20.33
2018-11-14T22:06:44.700Z,22.57
2018-11-14T22:09:15.942Z,21.10
2018-11-14T22:11:43.176Z,21.10
2018-11-14T22:14:10.476Z,19.83
2018-11-14T22:16:37.605Z,21.10
2018-11-14T22:19:05.285Z,18.40
2018-11-14T22:21:33.017Z,19.30
2018-11-14T22:24:02.985Z,19.30
2018-11-14T22:26:30.180Z,19.47
2018-11-14T22:28:57.401Z,18.47
2018-11-14T22:31:24.557Z,17.43
2018-11-14T22:33:51.750Z,18.33
2018-11-14T22:36:18.877Z,16.70
2018-11-14T22:38:46.073Z,16.63
2018-11-14T22:41:13.393Z,17.80
2018-11-14T22:43:40.556Z,17.57
2018-11-14T22:46:07.701Z,15.90
2018-11-14T22:48:34.995Z,17.17
2018-11-14T22:51:02.178Z,16.70
2018-11-14T22:53:29.315Z,17.73
2018-11-14T22:55:56.560Z,16.30
2018-11-14T22:58:23.705Z,16.83
2018-11-14T23:00:50.846Z,17.50
2018-11-14T23:03:18.029Z,15.63
2018-11-14T23:05:45.187Z,17.80
2018-11-14T23:08:12.324Z,15.10
2018-11-14T23:10:39.645Z,15.93
2018-11-14T23:13:06.876Z,17.00
2018-11-14T23:15:34.044Z,15.60
2018-11-14T23:18:01.221Z,17.07
2018-11-14T23:20:28.381Z,17.80
2018-11-14T23:22:55.658Z,17.70
2018-11-14T23:25:23.388Z,17.80
2018-11-14T23:27:51.669Z,19.27
2018-11-14T23:30:19.818Z,19.13
2018-11-14T23:32:48.438Z,20.17
2018-11-14T23:35:16.983Z,18.43
2018-11-14T23:37:45.665Z,19.67
2018-11-14T23:40:12.940Z,17.77
2018-11-14T23:42:40.137Z,17.83
2018-11-14T23:45:09.956Z,18.73
2018-11-14T23:47:37.149Z,17.07
2018-11-14T23:50:07.397Z,15.57
2018-11-14T23:52:34.541Z,16.27
2018-11-14T23:55:01.746Z,16.27
2018-11-14T23:57:28.925Z,16.03
2018-11-14T23:59:56.049Z,14.00
